createdAt,value
2019-05-14T00:01:38.902Z,51.70
2019-05-14T00:04:11.503Z,51.90
2019-05-14T00:06:42.161Z,51.90
2019-05-14T00:09:16.389Z,51.90
2019-05-14T00:11:46.368Z,52.10
2019-05-14T00:14:16.404Z,52.50
2019-05-14T00:16:46.351Z,52.80
2019-05-14T00:19:16.184Z,53.10
2019-05-14T00:21:46.444Z,53.30
2019-05-14T00:24:16.149Z,53.50
2019-05-14T00:26:46.288Z,53.90
2019-05-14T00:29:21.998Z,54.30
2019-05-14T00:31:55.257Z,54.80
2019-05-14T00:34:25.212Z,55.30
2019-05-14T00:36:58.031Z,55.90
2019-05-14T00:39:31.992Z,56.30
2019-05-14T00:42:02.833Z,56.40
2019-05-14T00:44:35.294Z,56.90
2019-05-14T00:47:05.390Z,57.50
2019-05-14T00:49:35.350Z,58.00
2019-05-14T00:52:05.280Z,58.90
2019-05-14T00:54:35.361Z,60.00
2019-05-14T00:57:17.825Z,61.10
2019-05-14T00:59:49.384Z,63.10
2019-05-14T01:02:21.621Z,65.20
2019-05-14T01:04:52.637Z,67.20
2019-05-14T01:07:24.447Z,70.00
2019-05-14T01:09:54.430Z,72.40
2019-05-14T01:12:24.218Z,75.20
2019-05-14T01:15:07.817Z,76.90
2019-05-14T01:17:31.493Z,79.00
2019-05-14T01:20:03.105Z,81.30
2019-05-14T01:22:34.200Z,83.70
2019-05-14T01:25:04.379Z,86.20
2019-05-14T01:27:53.308Z,88.00
2019-05-14T01:30:23.450Z,89.10
2019-05-14T01:32:53.916Z,91.20
2019-05-14T01:35:23.740Z,92.60
2019-05-14T01:37:53.760Z,93.50
2019-05-14T01:40:23.825Z,94.40
2019-05-14T01:42:56.097Z,95.00
2019-05-14T01:45:28.427Z,95.70
2019-05-14T01:48:01.390Z,96.40
2019-05-14T01:50:32.264Z,97.00
2019-05-14T01:53:02.350Z,97.60
2019-05-14T01:55:35.104Z,97.90
2019-05-14T01:58:05.060Z,98.00
2019-05-14T02:00:35.191Z,98.50
2019-05-14T02:03:12.131Z,99.10
2019-05-14T02:05:42.903Z,99.70
2019-05-14T02:08:13.301Z,99.90
2019-05-14T02:10:43.114Z,99.90
2019-05-14T02:13:13.149Z,99.90
2019-05-14T02:15:43.196Z,99.90
2019-05-14T02:18:17.261Z,99.90
2019-05-14T02:20:47.144Z,99.90
2019-05-14T02:23:17.994Z,99.90
2019-05-14T02:25:48.181Z,99.90
2019-05-14T02:28:22.099Z,99.90
2019-05-14T02:30:59.027Z,99.90
2019-05-14T02:33:35.494Z,99.90
2019-05-14T02:36:05.501Z,99.90
2019-05-14T02:38:38.726Z,99.90
2019-05-14T02:41:09.993Z,99.90
2019-05-14T02:43:40.879Z,99.90
2019-05-14T02:46:16.167Z,99.90
2019-05-14T02:48:42.470Z,99.90
2019-05-14T02:51:12.483Z,99.90
2019-05-14T02:53:42.306Z,99.90
2019-05-14T02:56:15.649Z,99.90
2019-05-14T02:58:59.741Z,99.90
2019-05-14T03:01:30.211Z,99.90
2019-05-14T03:04:02.565Z,99.90
2019-05-14T03:06:33.225Z,99.90
2019-05-14T03:09:04.637Z,99.90
2019-05-14T03:11:34.729Z,99.90
2019-05-14T03:14:05.037Z,99.90
2019-05-14T03:16:36.005Z,99.90
2019-05-14T03:19:09.946Z,99.90
2019-05-14T03:21:39.704Z,99.90
2019-05-14T03:24:11.650Z,99.90
2019-05-14T03:26:43.591Z,99.90
2019-05-14T03:29:14.215Z,99.90
2019-05-14T03:31:44.042Z,99.90
2019-05-14T03:34:14.525Z,99.90
2019-05-14T03:36:44.647Z,99.90
2019-05-14T03:39:18.936Z,99.90
2019-05-14T03:41:49.984Z,99.90
2019-05-14T03:44:20.311Z,99.90
2019-05-14T03:46:55.912Z,99.90
2019-05-14T03:49:24.901Z,99.90
2019-05-14T03:51:54.957Z,99.90
2019-05-14T03:54:24.822Z,99.90
2019-05-14T03:56:54.711Z,99.90
2019-05-14T03:59:24.555Z,99.90
2019-05-14T04:01:54.753Z,99.90
2019-05-14T04:04:29.671Z,99.90
2019-05-14T04:07:00.052Z,99.90
2019-05-14T04:09:31.915Z,99.90
2019-05-14T04:12:09.751Z,99.90
2019-05-14T04:14:40.907Z,99.90
2019-05-14T04:17:15.864Z,99.90
2019-05-14T04:19:49.944Z,99.90
2019-05-14T04:22:23.312Z,99.90
2019-05-14T04:24:55.757Z,99.90
2019-05-14T04:27:29.875Z,99.90
2019-05-14T04:30:01.679Z,99.90
2019-05-14T04:32:33.382Z,99.90
2019-05-14T04:35:04.630Z,99.90
2019-05-14T04:37:35.067Z,99.90
2019-05-14T04:40:05.299Z,99.90
2019-05-14T04:42:35.529Z,99.90
2019-05-14T04:45:06.288Z,99.90
2019-05-14T04:47:41.010Z,99.90
2019-05-14T04:50:10.615Z,99.90
2019-05-14T04:52:40.740Z,99.90
2019-05-14T04:55:11.038Z,99.90
2019-05-14T04:57:43.734Z,99.90
2019-05-14T05:00:19.854Z,99.90
2019-05-14T05:02:49.701Z,99.90
2019-05-14T05:05:22.363Z,99.90
2019-05-14T05:07:54.517Z,99.90
2019-05-14T05:10:29.533Z,99.90
2019-05-14T05:12:58.672Z,99.90
2019-05-14T05:15:29.159Z,99.90
2019-05-14T05:18:01.355Z,99.90
2019-05-14T05:20:31.204Z,99.90
2019-05-14T05:23:01.133Z,99.90
2019-05-14T05:25:32.885Z,99.90
2019-05-14T05:28:03.845Z,99.90
2019-05-14T05:30:38.377Z,99.90
2019-05-14T05:33:09.096Z,99.90
2019-05-14T05:35:45.335Z,99.90
2019-05-14T05:38:15.403Z,99.90
2019-05-14T05:40:48.410Z,99.90
2019-05-14T05:43:19.123Z,99.90
2019-05-14T05:45:49.379Z,99.90
2019-05-14T05:48:19.737Z,99.90
2019-05-14T05:50:50.064Z,99.90
2019-05-14T05:53:20.659Z,99.90
2019-05-14T05:55:50.677Z,99.90
2019-05-14T05:58:20.499Z,99.90
2019-05-14T06:00:52.910Z,99.90
2019-05-14T06:03:23.197Z,99.90
2019-05-14T06:05:53.248Z,99.90
2019-05-14T06:08:23.180Z,99.90
2019-05-14T06:11:02.447Z,99.90
2019-05-14T06:13:32.345Z,99.90
2019-05-14T06:16:06.308Z,99.90
2019-05-14T06:18:39.428Z,99.60
2019-05-14T06:21:09.905Z,96.60
2019-05-14T06:23:42.135Z,90.60
2019-05-14T06:26:14.069Z,76.50
2019-05-14T06:28:48.748Z,78.50
2019-05-14T06:31:19.418Z,87.60
2019-05-14T06:33:50.104Z,90.10
2019-05-14T06:36:20.847Z,73.40
2019-05-14T06:38:52.397Z,61.50
2019-05-14T06:41:22.326Z,56.50
2019-05-14T06:43:52.106Z,54.90
2019-05-14T06:46:23.136Z,53.80
2019-05-14T06:48:56.133Z,53.10
2019-05-14T06:51:29.496Z,52.60
2019-05-14T06:53:59.462Z,52.50
2019-05-14T06:56:38.464Z,52.60
2019-05-14T06:59:09.077Z,52.20
2019-05-14T07:01:41.943Z,51.40
2019-05-14T07:04:14.169Z,51.30
2019-05-14T07:06:51.518Z,51.10
2019-05-14T07:09:23.065Z,49.30
2019-05-14T07:11:58.644Z,48.80
2019-05-14T07:14:33.600Z,48.10
2019-05-14T07:17:05.923Z,49.10
2019-05-14T07:19:35.483Z,48.50
2019-05-14T07:22:14.332Z,48.20
2019-05-14T07:24:52.804Z,48.30
2019-05-14T07:27:24.424Z,48.10
2019-05-14T07:30:00.315Z,48.20
2019-05-14T07:32:32.580Z,47.50
2019-05-14T07:35:05.247Z,47.40
2019-05-14T07:37:39.343Z,47.40
2019-05-14T07:40:09.255Z,46.90
2019-05-14T07:42:40.322Z,46.00
2019-05-14T07:45:10.949Z,45.60
2019-05-14T07:47:42.828Z,45.10
2019-05-14T07:50:12.911Z,43.90
2019-05-14T07:52:49.741Z,44.20
2019-05-14T07:55:19.889Z,44.10
2019-05-14T07:57:52.837Z,44.80
2019-05-14T08:00:23.331Z,45.10
2019-05-14T08:02:53.462Z,45.60
2019-05-14T08:05:28.759Z,44.90
2019-05-14T08:07:59.095Z,44.90
2019-05-14T08:10:29.247Z,44.70
2019-05-14T08:12:59.289Z,43.90
2019-05-14T08:15:32.378Z,41.80
2019-05-14T08:18:02.128Z,41.20
2019-05-14T08:20:32.538Z,40.20
2019-05-14T08:23:04.959Z,41.20
2019-05-14T08:25:35.397Z,43.20
2019-05-14T08:28:08.149Z,42.90
2019-05-14T08:30:39.046Z,43.60
2019-05-14T08:33:10.149Z,42.10
2019-05-14T08:35:43.808Z,40.70
2019-05-14T08:38:13.857Z,40.90
2019-05-14T08:40:43.925Z,39.70
2019-05-14T08:43:14.185Z,39.20
2019-05-14T08:45:45.530Z,38.10
2019-05-14T08:48:15.732Z,37.90
2019-05-14T08:50:48.176Z,38.30
2019-05-14T08:53:19.251Z,37.20
2019-05-14T08:55:49.647Z,37.40
2019-05-14T08:58:23.243Z,36.70
2019-05-14T09:00:58.984Z,35.30
2019-05-14T09:03:31.196Z,34.60
2019-05-14T09:06:05.358Z,34.40
2019-05-14T09:08:39.007Z,34.20
2019-05-14T09:11:11.317Z,33.40
2019-05-14T09:13:44.737Z,34.60
2019-05-14T09:16:36.801Z,35.20
2019-05-14T09:18:52.032Z,34.40
2019-05-14T09:21:29.487Z,34.30
2019-05-14T09:24:00.145Z,34.40
2019-05-14T09:26:30.590Z,33.00
2019-05-14T09:29:16.992Z,31.10
2019-05-14T09:31:32.282Z,30.20
2019-05-14T09:34:05.255Z,31.10
2019-05-14T09:36:39.576Z,32.20
2019-05-14T09:39:12.374Z,32.50
2019-05-14T09:41:42.359Z,32.90
2019-05-14T09:44:12.502Z,35.40
2019-05-14T09:46:50.007Z,34.40
2019-05-14T09:49:42.452Z,34.10
2019-05-14T09:52:29.717Z,33.60
2019-05-14T09:55:01.353Z,32.30
2019-05-14T09:57:34.928Z,31.40
2019-05-14T10:00:18.679Z,29.80
2019-05-14T10:02:51.939Z,30.20
2019-05-14T10:05:25.814Z,30.80
2019-05-14T10:08:00.798Z,32.20
2019-05-14T10:10:39.897Z,31.90
2019-05-14T10:13:10.910Z,32.70
2019-05-14T10:15:42.264Z,34.50
2019-05-14T10:18:18.847Z,33.70
2019-05-14T10:20:49.408Z,34.00
2019-05-14T10:23:19.739Z,32.90
2019-05-14T10:25:54.438Z,33.30
2019-05-14T10:28:24.594Z,33.80
2019-05-14T10:30:54.995Z,34.30
2019-05-14T10:33:38.877Z,32.40
2019-05-14T10:36:21.009Z,30.70
2019-05-14T10:38:51.164Z,30.60
2019-05-14T10:41:21.658Z,28.30
2019-05-14T10:43:59.922Z,27.60
2019-05-14T10:46:30.192Z,27.70
2019-05-14T10:49:16.528Z,27.70
2019-05-14T10:51:40.923Z,27.40
2019-05-14T10:54:25.672Z,28.50
2019-05-14T10:56:53.888Z,29.30
2019-05-14T10:59:30.575Z,30.10
2019-05-14T11:02:02.783Z,30.60
2019-05-14T11:04:39.004Z,30.60
2019-05-14T11:07:12.893Z,31.30
2019-05-14T11:09:48.667Z,30.90
2019-05-14T11:12:23.573Z,29.80
2019-05-14T11:14:56.221Z,29.90
2019-05-14T11:17:33.771Z,28.90
2019-05-14T11:20:12.619Z,28.60
2019-05-14T11:22:50.077Z,28.00
2019-05-14T11:25:21.319Z,27.10
2019-05-14T11:27:58.616Z,26.00
2019-05-14T11:30:30.647Z,26.00
2019-05-14T11:33:05.521Z,25.50
2019-05-14T11:35:43.907Z,25.60
2019-05-14T11:38:28.439Z,25.60
2019-05-14T11:40:49.560Z,26.70
2019-05-14T11:43:22.776Z,28.30
2019-05-14T11:45:53.175Z,29.50
2019-05-14T11:48:23.446Z,30.10
2019-05-14T11:50:55.205Z,31.20
2019-05-14T11:53:38.562Z,30.50
2019-05-14T11:56:19.614Z,29.20
2019-05-14T11:58:54.700Z,28.60
2019-05-14T12:01:25.657Z,26.80
2019-05-14T12:04:03.315Z,26.20
2019-05-14T12:06:33.794Z,26.50
2019-05-14T12:09:11.461Z,26.40
2019-05-14T12:11:38.720Z,26.80
2019-05-14T12:14:09.542Z,27.00
2019-05-14T12:16:40.554Z,26.60
2019-05-14T12:19:13.249Z,26.30
2019-05-14T12:22:02.866Z,26.20
2019-05-14T12:24:21.930Z,26.20
2019-05-14T12:26:52.820Z,26.70
2019-05-14T12:29:28.902Z,26.90
2019-05-14T12:31:59.552Z,27.50
2019-05-14T12:34:44.872Z,28.00
2019-05-14T12:37:22.349Z,27.60
2019-05-14T12:39:54.724Z,27.00
2019-05-14T12:42:29.576Z,27.10
2019-05-14T12:45:19.017Z,27.20
2019-05-14T12:47:50.221Z,26.90
2019-05-14T12:50:30.090Z,26.90
2019-05-14T12:52:59.459Z,26.10
2019-05-14T12:55:32.948Z,26.00
2019-05-14T12:58:08.559Z,25.90
2019-05-14T13:00:48.939Z,26.30
2019-05-14T13:03:28.545Z,26.90
2019-05-14T13:06:05.120Z,26.60
2019-05-14T13:08:48.995Z,26.10
2019-05-14T13:11:19.728Z,26.10
2019-05-14T13:14:21.560Z,27.40
2019-05-14T13:17:28.203Z,27.40
2019-05-14T13:19:58.488Z,28.00
2019-05-14T13:22:42.400Z,27.70
2019-05-14T13:25:11.165Z,27.70
2019-05-14T13:27:41.580Z,28.00
2019-05-14T13:30:12.447Z,27.90
2019-05-14T13:32:43.169Z,27.80
2019-05-14T13:35:14.633Z,28.10
2019-05-14T13:37:45.294Z,28.70
2019-05-14T13:40:16.148Z,29.30
2019-05-14T13:42:51.012Z,30.00
2019-05-14T13:45:24.679Z,31.00
2019-05-14T13:47:55.711Z,31.20
2019-05-14T13:50:29.215Z,31.40
2019-05-14T13:53:06.880Z,31.60
2019-05-14T13:55:30.965Z,31.40
2019-05-14T13:58:04.139Z,32.20
2019-05-14T14:00:38.383Z,33.00
2019-05-14T14:03:10.065Z,32.80
2019-05-14T14:05:42.087Z,32.60
2019-05-14T14:08:19.115Z,32.40
2019-05-14T14:10:53.081Z,32.30
2019-05-14T14:13:20.163Z,31.90
2019-05-14T14:15:50.880Z,32.20
2019-05-14T14:18:27.175Z,32.50
2019-05-14T14:20:59.010Z,32.50
2019-05-14T14:23:31.739Z,32.40
2019-05-14T14:26:09.401Z,32.70
2019-05-14T14:28:49.282Z,32.00
2019-05-14T14:31:18.858Z,31.90
2019-05-14T14:33:49.477Z,32.30
2019-05-14T14:36:20.213Z,32.10
2019-05-14T14:38:50.577Z,32.30
2019-05-14T14:41:20.900Z,32.80
2019-05-14T14:43:54.361Z,32.50
2019-05-14T14:46:24.266Z,32.50
2019-05-14T14:49:00.173Z,32.50
2019-05-14T14:51:31.217Z,32.40
2019-05-14T14:54:10.252Z,32.40
2019-05-14T14:56:37.918Z,32.00
2019-05-14T14:59:09.530Z,32.60
2019-05-14T15:01:41.633Z,32.90
2019-05-14T15:04:14.080Z,33.50
2019-05-14T15:06:46.211Z,33.20
2019-05-14T15:09:18.186Z,33.10
2019-05-14T15:11:51.564Z,33.50
2019-05-14T15:15:06.220Z,33.40
2019-05-14T15:17:39.347Z,33.70
2019-05-14T15:20:12.600Z,33.30
2019-05-14T15:22:48.668Z,33.50
2019-05-14T15:25:19.554Z,34.30
2019-05-14T15:27:50.462Z,34.50
2019-05-14T15:30:22.247Z,34.70
2019-05-14T15:32:52.640Z,34.60
2019-05-14T15:35:23.534Z,33.60
2019-05-14T15:38:30.080Z,33.00
2019-05-14T15:41:19.916Z,33.20
2019-05-14T15:43:50.100Z,33.50
2019-05-14T15:46:24.200Z,33.60
2019-05-14T15:49:23.865Z,33.80
2019-05-14T15:51:59.864Z,34.20
2019-05-14T15:54:42.339Z,34.60
2019-05-14T15:57:06.262Z,34.50
2019-05-14T16:00:00.774Z,34.50
2019-05-14T16:02:31.397Z,34.50
2019-05-14T16:05:02.017Z,34.70
2019-05-14T16:07:39.147Z,34.50
2019-05-14T16:10:13.841Z,35.00
2019-05-14T16:12:50.320Z,34.80
2019-05-14T16:15:21.430Z,35.00
2019-05-14T16:18:06.028Z,35.00
2019-05-14T16:20:24.076Z,34.70
2019-05-14T16:22:58.830Z,34.10
2019-05-14T16:25:42.156Z,34.40
2019-05-14T16:28:10.376Z,34.10
2019-05-14T16:33:49.264Z,35.10
2019-05-14T16:36:28.734Z,35.00
2019-05-14T16:39:11.158Z,35.00
2019-05-14T16:41:49.004Z,34.70
2019-05-14T16:44:28.489Z,34.60
2019-05-14T16:47:02.457Z,33.80
2019-05-14T16:49:39.403Z,33.80
2019-05-14T16:52:25.494Z,34.10
2019-05-14T16:55:20.246Z,34.50
2019-05-14T16:57:50.568Z,34.30
2019-05-14T17:00:23.408Z,34.20
2019-05-14T17:02:54.958Z,33.70
2019-05-14T17:05:34.289Z,33.90
2019-05-14T17:08:22.681Z,34.30
2019-05-14T17:11:18.219Z,34.40
2019-05-14T17:13:53.410Z,34.30
2019-05-14T17:16:29.526Z,34.40
2019-05-14T17:19:04.505Z,34.30
2019-05-14T17:21:39.017Z,34.30
2019-05-14T17:24:20.018Z,34.60
2019-05-14T17:26:52.350Z,35.00
2019-05-14T17:29:28.403Z,34.90
2019-05-14T17:32:00.399Z,34.70
2019-05-14T17:34:38.588Z,35.20
2019-05-14T17:37:19.715Z,35.00
2019-05-14T17:39:51.983Z,35.30
2019-05-14T17:42:29.195Z,35.50
2019-05-14T17:45:17.315Z,36.00
2019-05-14T17:47:58.334Z,35.90
2019-05-14T17:50:34.525Z,36.00
2019-05-14T17:53:09.741Z,36.10
2019-05-14T17:55:47.232Z,35.90
2019-05-14T17:58:32.740Z,35.40
2019-05-14T18:01:10.219Z,35.10
2019-05-14T18:03:50.405Z,35.30
2019-05-14T18:06:21.194Z,35.60
2019-05-14T18:09:10.705Z,35.90
2019-05-14T18:11:49.164Z,36.20
2019-05-14T18:14:31.005Z,36.40
2019-05-14T18:17:05.209Z,36.50
2019-05-14T18:19:38.283Z,36.10
2019-05-14T18:22:19.470Z,36.00
2019-05-14T18:24:59.189Z,36.10
2019-05-14T18:28:09.202Z,36.30
2019-05-14T18:31:11.960Z,36.70
2019-05-14T18:33:49.212Z,36.60
2019-05-14T18:36:28.346Z,36.70
2019-05-14T18:38:58.567Z,36.70
2019-05-14T18:41:49.844Z,37.10
2019-05-14T18:44:28.486Z,37.30
2019-05-14T18:47:08.760Z,37.40
2019-05-14T18:49:39.579Z,37.60
2019-05-14T18:52:15.015Z,37.80
2019-05-14T18:54:48.314Z,37.80
2019-05-14T18:57:23.866Z,37.90
2019-05-14T19:00:04.708Z,38.10
2019-05-14T19:02:44.185Z,38.40
2019-05-14T19:05:22.892Z,38.30
2019-05-14T19:07:53.762Z,38.40
2019-05-14T19:10:23.868Z,38.40
2019-05-14T19:13:08.840Z,38.60
2019-05-14T19:15:50.328Z,38.60
2019-05-14T19:19:07.945Z,38.70
2019-05-14T19:21:58.245Z,38.90
2019-05-14T19:24:30.855Z,38.90
2019-05-14T19:27:19.179Z,39.10
2019-05-14T19:29:55.843Z,39.10
2019-05-14T19:32:29.243Z,39.10
2019-05-14T19:35:04.298Z,39.40
2019-05-14T19:37:45.163Z,39.50
2019-05-14T19:40:39.222Z,39.80
2019-05-14T19:43:10.668Z,40.00
2019-05-14T19:45:41.472Z,40.30
2019-05-14T19:48:16.151Z,40.20
2019-05-14T19:50:49.206Z,40.30
2019-05-14T19:53:31.890Z,40.10
2019-05-14T19:56:17.192Z,40.40
2019-05-14T19:58:47.506Z,40.70
2019-05-14T20:01:19.448Z,40.90
2019-05-14T20:03:52.339Z,40.80
2019-05-14T20:06:46.280Z,41.30
2019-05-14T20:09:19.433Z,41.30
2019-05-14T20:11:58.219Z,41.50
2019-05-14T20:14:33.680Z,41.60
2019-05-14T20:17:49.587Z,41.60
2019-05-14T20:20:19.891Z,41.60
2019-05-14T20:22:55.229Z,41.90
2019-05-14T20:25:28.265Z,42.00
2019-05-14T20:28:00.761Z,42.10
2019-05-14T20:30:49.169Z,42.30
2019-05-14T20:33:37.322Z,42.70
2019-05-14T20:36:18.616Z,42.80
2019-05-14T20:38:58.969Z,43.30
2019-05-14T20:41:54.855Z,43.30
2019-05-14T20:44:29.107Z,43.50
2019-05-14T20:47:06.430Z,43.30
2019-05-14T20:49:38.337Z,43.30
2019-05-14T20:52:12.445Z,43.30
2019-05-14T20:54:50.518Z,43.40
2019-05-14T20:57:30.454Z,43.10
2019-05-14T21:00:11.621Z,43.30
2019-05-14T21:02:49.878Z,43.30
2019-05-14T21:05:20.861Z,43.10
2019-05-14T21:07:51.618Z,43.00
2019-05-14T21:10:29.035Z,43.20
2019-05-14T21:12:59.423Z,43.50
2019-05-14T21:15:31.673Z,43.50
2019-05-14T21:18:14.640Z,43.60
2019-05-14T21:21:14.966Z,43.60
2019-05-14T21:23:49.491Z,43.70
2019-05-14T21:26:20.939Z,43.80
2019-05-14T21:28:58.254Z,44.10
2019-05-14T21:31:28.789Z,44.30
2019-05-14T21:34:03.439Z,44.50
2019-05-14T21:36:39.819Z,44.70
2019-05-14T21:39:18.753Z,45.00
2019-05-14T21:41:52.419Z,45.10
2019-05-14T21:44:24.652Z,45.40
2019-05-14T21:47:08.311Z,45.70
2019-05-14T21:49:43.779Z,45.70
2019-05-14T21:52:21.112Z,46.10
2019-05-14T21:55:06.244Z,46.10
2019-05-14T21:57:38.124Z,46.30
2019-05-14T22:00:25.013Z,46.70
2019-05-14T22:02:58.300Z,46.80
2019-05-14T22:05:31.867Z,46.90
2019-05-14T22:08:03.481Z,47.10
2019-05-14T22:10:36.131Z,47.20
2019-05-14T22:13:11.936Z,47.30
2019-05-14T22:15:44.406Z,47.50
2019-05-14T22:18:27.868Z,47.70
2019-05-14T22:21:08.835Z,48.00
2019-05-14T22:23:45.044Z,48.20
2019-05-14T22:26:11.342Z,48.50
2019-05-14T22:28:51.446Z,48.70
2019-05-14T22:31:32.122Z,48.90
2019-05-14T22:34:02.598Z,49.30
2019-05-14T22:36:42.505Z,49.50
2019-05-14T22:39:19.979Z,49.90
2019-05-14T22:41:51.085Z,50.00
2019-05-14T22:44:22.099Z,50.20
2019-05-14T22:46:52.304Z,50.00
2019-05-14T22:49:23.224Z,50.10
2019-05-14T22:51:54.271Z,50.00
2019-05-14T22:54:24.494Z,50.40
2019-05-14T22:56:54.478Z,50.20
2019-05-14T22:59:43.568Z,50.40
2019-05-14T23:02:19.407Z,50.50
2019-05-14T23:04:54.987Z,50.50
2019-05-14T23:07:48.646Z,50.70
2019-05-14T23:10:20.404Z,50.50
2019-05-14T23:13:00.422Z,50.80
2019-05-14T23:15:41.643Z,50.90
2019-05-14T23:18:35.031Z,51.10
2019-05-14T23:21:10.460Z,51.10
2019-05-14T23:23:45.611Z,51.30
2019-05-14T23:26:19.218Z,51.40
2019-05-14T23:28:54.770Z,51.70
2019-05-14T23:31:33.241Z,52.10
2019-05-14T23:34:07.469Z,52.60
2019-05-14T23:36:38.859Z,53.50
2019-05-14T23:39:12.403Z,54.10
2019-05-14T23:41:42.763Z,54.40
2019-05-14T23:44:13.085Z,55.00
2019-05-14T23:46:45.048Z,55.80
2019-05-14T23:49:14.852Z,56.80
2019-05-14T23:51:44.857Z,57.60
2019-05-14T23:54:14.884Z,58.60
2019-05-14T23:56:45.159Z,59.90
2019-05-14T23:59:18.421Z,61.30
